Time;durP1;ratioP1;P1;durP2;ratioP2;P2;SDS_P1;SDS_P2;PMS_P1;PMS_P2;Temp;Humidity;BMP_temperature;BMP_pressure;BME280_temperature;BME280_humidity;BME280_pressure;Samples;Min_cycle;Max_cycle;Signal;HPM_P1;HPM_P2
2021/03/05 00:01:42;;;;;;;15.93;3.77;;;4.50;99.90;;;;;;5056438;28;20478;-70
2021/03/05 00:04:08;;;;;;;3.93;2.20;;;4.60;99.90;;;;;;5049640;28;20452;-69
2021/03/05 00:06:36;;;;;;;3.17;1.77;;;4.40;99.90;;;;;;5052762;28;20464;-69
2021/03/05 00:09:03;;;;;;;14.10;5.33;;;4.50;99.90;;;;;;5055938;28;20559;-69
2021/03/05 00:11:29;;;;;;;16.07;4.30;;;4.50;99.90;;;;;;5049746;28;20517;-69
2021/03/05 00:13:56;;;;;;;10.60;5.57;;;4.50;99.90;;;;;;5037658;28;21240;-69
2021/03/05 00:16:23;;;;;;;18.90;4.37;;;4.70;99.90;;;;;;5039129;28;20433;-69
2021/03/05 00:18:50;;;;;;;4.67;3.23;;;4.70;99.90;;;;;;5053598;28;20479;-69
2021/03/05 00:21:16;;;;;;;9.17;3.17;;;4.60;99.90;;;;;;5051118;28;21779;-69
2021/03/05 00:23:44;;;;;;;9.27;4.13;;;4.60;99.90;;;;;;5051655;28;20455;-69
2021/03/05 00:26:10;;;;;;;17.97;3.53;;;4.60;99.90;;;;;;5053734;28;20532;-69
2021/03/05 00:28:37;;;;;;;13.10;4.10;;;4.60;99.90;;;;;;5056122;28;20967;-69
2021/03/05 00:31:04;;;;;;;4.87;2.70;;;4.40;99.90;;;;;;5057068;28;21543;-69
2021/03/05 00:33:30;;;;;;;14.73;4.27;;;4.40;99.90;;;;;;5053622;28;20525;-69
2021/03/05 00:35:57;;;;;;;7.50;2.80;;;4.60;99.90;;;;;;5052688;28;20646;-70
2021/03/05 00:38:24;;;;;;;8.37;4.43;;;4.60;99.90;;;;;;5056103;28;20493;-69
2021/03/05 00:40:52;;;;;;;16.40;5.23;;;4.60;99.90;;;;;;5055320;28;20445;-69
2021/03/05 00:43:20;;;;;;;13.97;3.97;;;4.60;99.90;;;;;;5054546;28;20443;-70
2021/03/05 00:45:47;;;;;;;14.63;5.10;;;4.70;99.90;;;;;;5057222;28;20805;-70
2021/03/05 00:48:13;;;;;;;12.17;5.13;;;4.70;99.90;;;;;;5053200;28;20477;-69
2021/03/05 00:50:40;;;;;;;16.80;6.77;;;4.70;99.90;;;;;;5037931;28;20437;-70
2021/03/05 00:53:07;;;;;;;10.30;5.40;;;4.70;99.90;;;;;;5051751;28;20493;-70
2021/03/05 00:55:33;;;;;;;15.20;5.27;;;4.70;99.90;;;;;;5054260;28;20426;-70
2021/03/05 00:58:00;;;;;;;11.63;6.33;;;4.70;99.90;;;;;;5053315;28;20517;-70
2021/03/05 01:00:27;;;;;;;17.00;5.53;;;4.80;99.90;;;;;;5050822;28;20971;-70
2021/03/05 01:02:54;;;;;;;15.60;5.63;;;4.80;99.90;;;;;;5049191;28;20893;-71
2021/03/05 01:05:20;;;;;;;12.60;6.23;;;4.60;99.90;;;;;;5046837;28;20470;-70
2021/03/05 01:07:47;;;;;;;12.07;6.97;;;4.50;99.90;;;;;;5050970;28;20432;-70
2021/03/05 01:10:14;;;;;;;18.43;6.57;;;4.70;99.90;;;;;;5055924;28;20650;-71
2021/03/05 01:12:41;;;;;;;14.40;6.77;;;4.60;99.90;;;;;;5058328;28;20425;-69
2021/03/05 01:15:09;;;;;;;11.00;4.83;;;4.50;99.90;;;;;;5034965;28;21024;-70
2021/03/05 01:17:36;;;;;;;15.97;9.47;;;4.40;99.90;;;;;;5048789;28;20527;-69
2021/03/05 01:20:08;;;;;;;12.70;7.77;;;4.40;99.90;;;;;;5057056;28;20565;-70
2021/03/05 01:22:34;;;;;;;16.73;9.60;;;4.30;99.90;;;;;;5052023;28;20525;-69
2021/03/05 01:25:01;;;;;;;7.43;4.50;;;4.40;99.90;;;;;;5050095;28;21944;-70
2021/03/05 01:27:27;;;;;;;11.37;6.40;;;4.40;99.90;;;;;;5051228;28;20458;-68
2021/03/05 01:29:54;;;;;;;10.40;6.37;;;4.40;99.90;;;;;;5049967;28;20605;-69
2021/03/05 01:32:22;;;;;;;11.73;9.40;;;4.30;99.90;;;;;;5047969;28;20772;-69
2021/03/05 01:34:48;;;;;;;5.50;4.60;;;4.10;99.90;;;;;;5048407;28;20519;-70
2021/03/05 01:37:15;;;;;;;17.33;6.37;;;4.20;99.90;;;;;;5049714;28;20869;-69
2021/03/05 01:39:44;;;;;;;16.47;8.20;;;4.20;99.90;;;;;;5051440;28;21238;-69
2021/03/05 01:42:10;;;;;;;14.70;7.20;;;4.30;99.90;;;;;;5047888;28;20454;-69
2021/03/05 01:44:37;;;;;;;6.87;5.80;;;4.40;99.90;;;;;;5049123;28;20532;-69
2021/03/05 01:47:04;;;;;;;12.27;5.67;;;4.40;99.90;;;;;;5050231;28;20634;-69
2021/03/05 01:49:31;;;;;;;8.17;5.07;;;4.40;99.90;;;;;;5050119;28;20684;-68
2021/03/05 01:51:58;;;;;;;13.10;8.50;;;4.30;99.90;;;;;;5054222;28;20482;-70
2021/03/05 01:54:25;;;;;;;13.90;6.60;;;4.30;99.90;;;;;;5037118;28;20520;-69
2021/03/05 01:56:52;;;;;;;16.63;7.83;;;4.40;99.90;;;;;;5049918;28;20527;-69
2021/03/05 01:59:24;;;;;;;8.73;6.80;;;4.50;99.90;;;;;;5055430;28;20475;-70
2021/03/05 02:01:50;;;;;;;15.23;7.03;;;4.50;99.90;;;;;;5056212;28;20457;-70
2021/03/05 02:04:17;;;;;;;14.90;8.73;;;4.50;99.90;;;;;;5056640;28;20466;-69
2021/03/05 02:06:44;;;;;;;10.70;5.50;;;4.40;99.90;;;;;;5057007;28;21206;-69
2021/03/05 02:09:11;;;;;;;11.90;6.90;;;4.20;99.90;;;;;;5056740;28;20531;-69
2021/03/05 02:11:38;;;;;;;12.47;7.60;;;4.20;99.90;;;;;;5055665;28;20466;-69
2021/03/05 02:14:07;;;;;;;9.43;4.80;;;4.20;99.90;;;;;;5055276;28;20527;-69
2021/03/05 02:16:44;;;;;;;12.33;5.87;;;4.20;99.90;;;;;;5054954;28;20450;-69
2021/03/05 02:19:38;;;;;;;13.03;7.83;;;4.20;99.90;;;;;;5058482;28;20602;-69
2021/03/05 02:22:48;;;;;;;11.43;8.03;;;4.10;99.90;;;;;;5058954;28;20500;-69
2021/03/05 02:25:33;;;;;;;12.83;4.63;;;4.20;99.90;;;;;;5031137;28;20429;-70
2021/03/05 02:28:33;;;;;;;13.33;9.60;;;4.10;99.90;;;;;;5053020;28;20544;-69
2021/03/05 02:31:14;;;;;;;7.10;5.03;;;4.00;99.90;;;;;;5032867;28;20479;-69
2021/03/05 02:33:46;;;;;;;11.30;6.93;;;4.00;99.90;;;;;;5054012;28;20425;-69
2021/03/05 02:36:18;;;;;;;11.73;8.40;;;4.10;99.90;;;;;;5052264;28;20817;-69
2021/03/05 02:38:58;;;;;;;9.83;6.40;;;4.10;99.90;;;;;;5054201;28;20489;-70
2021/03/05 02:41:26;;;;;;;5.50;4.67;;;4.00;99.90;;;;;;5055153;28;20461;-69
2021/03/05 02:43:55;;;;;;;2.40;2.17;;;4.10;99.90;;;;;;5058092;28;20914;-69
2021/03/05 02:46:23;;;;;;;10.63;6.30;;;4.00;99.90;;;;;;5052710;28;20521;-68
2021/03/05 02:48:52;;;;;;;10.17;7.13;;;4.00;99.90;;;;;;5054265;28;20457;-69
2021/03/05 02:51:20;;;;;;;4.37;3.80;;;4.10;99.90;;;;;;5056784;28;20537;-69
2021/03/05 02:53:48;;;;;;;8.07;5.70;;;4.10;99.90;;;;;;5050687;28;20492;-69
2021/03/05 02:56:16;;;;;;;8.10;5.93;;;3.90;99.90;;;;;;5054312;28;20519;-69
2021/03/05 02:58:47;;;;;;;11.10;6.10;;;3.90;99.90;;;;;;5060485;28;20516;-70
2021/03/05 03:01:15;;;;;;;11.57;5.87;;;3.90;99.90;;;;;;5054330;28;20518;-70
2021/03/05 03:03:44;;;;;;;9.63;6.40;;;4.00;99.90;;;;;;5052502;28;20457;-69
2021/03/05 03:06:12;;;;;;;15.90;6.13;;;4.00;99.90;;;;;;5052951;28;20460;-69
2021/03/05 03:08:39;;;;;;;11.97;5.73;;;4.10;99.90;;;;;;5056724;28;21608;-69
2021/03/05 03:11:06;;;;;;;7.60;4.80;;;4.10;99.90;;;;;;5050869;28;20491;-69
2021/03/05 03:13:34;;;;;;;7.70;5.60;;;4.30;99.90;;;;;;5057425;28;20973;-69
2021/03/05 03:16:01;;;;;;;11.47;6.33;;;4.30;99.90;;;;;;5053746;28;20469;-69
2021/03/05 03:18:28;;;;;;;5.53;5.03;;;4.20;99.90;;;;;;5051589;28;20446;-70
2021/03/05 03:20:58;;;;;;;3.63;2.50;;;4.10;99.90;;;;;;5048804;28;20449;-69
2021/03/05 03:23:24;;;;;;;5.47;4.67;;;4.00;99.90;;;;;;5053925;28;20463;-69
2021/03/05 03:25:52;;;;;;;7.63;4.17;;;3.90;99.90;;;;;;5055979;28;20549;-69
2021/03/05 03:28:19;;;;;;;5.20;4.40;;;3.80;99.90;;;;;;5054920;28;21014;-69
2021/03/05 03:30:46;;;;;;;1.50;1.10;;;3.90;99.90;;;;;;5055652;28;20485;-69
2021/03/05 03:33:12;;;;;;;5.13;3.30;;;3.70;99.90;;;;;;5050966;28;20448;-68
2021/03/05 03:35:40;;;;;;;4.07;3.63;;;3.50;99.90;;;;;;5054890;28;20462;-68
2021/03/05 03:38:09;;;;;;;6.33;3.03;;;3.50;99.90;;;;;;5052053;28;20704;-68
2021/03/05 03:40:36;;;;;;;3.03;2.20;;;3.60;99.90;;;;;;5055384;28;20594;-69
2021/03/05 03:43:04;;;;;;;5.27;3.33;;;3.40;99.90;;;;;;5055301;28;20592;-70
2021/03/05 03:45:31;;;;;;;10.90;2.10;;;3.40;99.90;;;;;;5053654;28;21002;-69
2021/03/05 03:47:59;;;;;;;8.00;2.80;;;3.40;99.90;;;;;;5054808;28;20516;-68
2021/03/05 03:50:30;;;;;;;3.50;2.07;;;3.40;99.90;;;;;;5048192;28;21015;-69
2021/03/05 03:53:00;;;;;;;3.50;1.97;;;3.40;99.90;;;;;;5058888;28;20471;-69
2021/03/05 03:55:28;;;;;;;2.30;2.13;;;3.50;99.90;;;;;;5049997;28;20425;-71
2021/03/05 03:57:56;;;;;;;3.30;2.40;;;3.40;99.90;;;;;;5050695;28;20433;-69
2021/03/05 04:00:24;;;;;;;2.63;2.07;;;3.10;99.90;;;;;;5049517;28;20426;-67
2021/03/05 04:02:53;;;;;;;2.23;1.63;;;3.00;99.90;;;;;;5051603;28;20542;-68
2021/03/05 04:05:25;;;;;;;3.77;1.77;;;3.00;99.90;;;;;;5047858;28;20513;-68
2021/03/05 04:07:54;;;;;;;1.13;1.03;;;3.10;99.90;;;;;;5054492;28;20430;-68
2021/03/05 04:10:21;;;;;;;1.40;1.17;;;3.10;99.90;;;;;;5056555;28;20926;-68
2021/03/05 04:12:49;;;;;;;1.70;1.60;;;3.00;99.90;;;;;;5056756;28;20520;-69
2021/03/05 04:15:17;;;;;;;2.90;1.63;;;2.90;99.90;;;;;;5049988;28;20426;-68
2021/03/05 04:17:44;;;;;;;1.17;1.00;;;2.90;99.90;;;;;;5050609;28;20484;-68
2021/03/05 04:20:14;;;;;;;7.33;2.90;;;2.60;99.90;;;;;;5055123;28;20459;-68
2021/03/05 04:22:43;;;;;;;1.20;1.10;;;2.50;99.90;;;;;;5055866;28;20496;-69
2021/03/05 04:25:11;;;;;;;1.47;1.00;;;2.40;99.90;;;;;;5054269;28;20512;-69
2021/03/05 04:27:37;;;;;;;6.80;1.60;;;2.20;99.90;;;;;;5050999;28;20830;-68
2021/03/05 04:30:06;;;;;;;3.17;1.07;;;2.20;99.90;;;;;;5058433;28;20501;-68
2021/03/05 04:32:32;;;;;;;1.33;1.23;;;2.10;99.90;;;;;;5054744;28;20525;-69
2021/03/05 04:34:59;;;;;;;1.63;1.53;;;1.90;99.90;;;;;;5056799;28;20437;-69
2021/03/05 04:37:26;;;;;;;2.57;1.60;;;1.90;99.90;;;;;;5053301;28;20442;-69
2021/03/05 04:39:53;;;;;;;31.37;16.73;;;1.90;99.90;;;;;;5036880;28;20437;-68
2021/03/05 04:42:19;;;;;;;6.43;2.50;;;1.90;99.90;;;;;;5061141;28;20548;-69
2021/03/05 04:44:46;;;;;;;1.53;1.20;;;1.90;99.90;;;;;;5053931;28;20590;-70
2021/03/05 04:47:16;;;;;;;3.27;1.63;;;1.80;99.90;;;;;;5052811;28;20533;-69
2021/03/05 04:49:43;;;;;;;1.67;1.47;;;1.90;99.90;;;;;;5058457;28;20536;-69
2021/03/05 04:52:10;;;;;;;0.90;0.70;;;1.80;99.90;;;;;;5050697;28;20429;-70
2021/03/05 04:54:36;;;;;;;1.00;0.90;;;1.50;99.90;;;;;;5036962;28;20472;-69
2021/03/05 04:57:03;;;;;;;3.97;2.43;;;1.30;99.90;;;;;;5050561;28;20547;-70
2021/03/05 04:59:30;;;;;;;1.50;1.03;;;1.40;99.90;;;;;;5057177;28;20800;-69
2021/03/05 05:01:57;;;;;;;0.90;0.70;;;1.40;99.90;;;;;;5058069;28;20504;-70
2021/03/05 05:04:24;;;;;;;1.67;1.33;;;1.40;99.90;;;;;;5053183;28;20903;-70
2021/03/05 05:06:51;;;;;;;1.67;0.90;;;1.40;99.90;;;;;;5050827;28;20467;-70
2021/03/05 05:09:18;;;;;;;1.83;0.80;;;1.50;99.90;;;;;;5050886;28;20827;-69
2021/03/05 05:11:45;;;;;;;1.97;1.40;;;1.40;99.90;;;;;;5053601;28;20474;-70
2021/03/05 05:14:12;;;;;;;3.10;1.77;;;1.30;99.90;;;;;;5055053;28;20960;-70
2021/03/05 05:16:38;;;;;;;3.37;1.57;;;1.30;99.90;;;;;;5055276;28;20462;-71
2021/03/05 05:19:05;;;;;;;7.57;1.80;;;1.30;99.90;;;;;;5059513;28;20581;-69
2021/03/05 05:21:32;;;;;;;6.40;1.23;;;1.30;99.90;;;;;;5060908;28;20565;-68
2021/03/05 05:23:59;;;;;;;1.20;1.10;;;1.30;99.90;;;;;;5056606;28;20607;-69
2021/03/05 05:26:26;;;;;;;2.33;2.13;;;1.20;99.90;;;;;;5058433;28;21039;-69
2021/03/05 05:28:52;;;;;;;1.93;1.10;;;1.20;99.90;;;;;;5062322;28;20547;-69
2021/03/05 05:31:19;;;;;;;1.40;1.03;;;1.20;99.90;;;;;;5062484;28;20736;-69
2021/03/05 05:33:46;;;;;;;1.60;1.27;;;1.20;99.90;;;;;;5066592;28;20512;-69
2021/03/05 05:36:12;;;;;;;4.57;1.87;;;1.10;99.90;;;;;;5044527;28;20532;-68
2021/03/05 05:38:40;;;;;;;2.73;1.77;;;1.20;99.90;;;;;;5063278;28;21039;-69
2021/03/05 05:41:06;;;;;;;1.20;1.10;;;1.20;99.90;;;;;;5064069;28;20590;-69
2021/03/05 05:43:33;;;;;;;1.63;1.53;;;1.10;99.90;;;;;;5060177;28;20553;-69
2021/03/05 05:46:03;;;;;;;7.23;2.67;;;1.00;99.90;;;;;;5063179;28;20558;-69
2021/03/05 05:48:31;;;;;;;1.90;1.20;;;0.90;99.90;;;;;;5061487;28;20474;-69
2021/03/05 05:50:58;;;;;;;2.03;1.07;;;0.90;99.90;;;;;;5062047;28;20565;-70
2021/03/05 05:53:31;;;;;;;1.10;0.90;;;1.00;99.90;;;;;;5064188;28;20530;-68
2021/03/05 05:55:59;;;;;;;2.20;1.67;;;0.90;99.90;;;;;;5062020;28;20476;-68
2021/03/05 05:58:27;;;;;;;1.80;1.50;;;0.90;99.90;;;;;;5062753;28;21014;-69
2021/03/05 06:00:57;;;;;;;1.37;1.27;;;0.90;99.90;;;;;;5061886;28;20441;-69
2021/03/05 06:03:28;;;;;;;1.97;1.50;;;1.00;99.90;;;;;;5064287;28;20545;-69
2021/03/05 06:05:56;;;;;;;2.73;1.50;;;1.00;99.90;;;;;;5061463;28;21148;-68
2021/03/05 06:08:23;;;;;;;3.30;1.83;;;1.00;99.90;;;;;;5062882;28;20569;-69
2021/03/05 06:10:52;;;;;;;2.87;1.30;;;1.10;99.90;;;;;;5062628;28;20462;-69
2021/03/05 06:13:20;;;;;;;4.70;1.83;;;0.90;99.90;;;;;;5063410;28;20474;-69
2021/03/05 06:16:09;;;;;;;1.80;1.70;;;0.90;99.90;;;;;;5061483;28;20457;-69
2021/03/05 06:18:36;;;;;;;1.23;1.13;;;0.90;99.90;;;;;;5058835;28;20595;-69
2021/03/05 06:21:02;;;;;;;1.60;1.40;;;0.80;99.90;;;;;;5061064;28;20470;-69
2021/03/05 06:23:28;;;;;;;2.50;1.53;;;0.90;99.90;;;;;;5065765;28;20513;-69
2021/03/05 06:25:59;;;;;;;1.27;1.17;;;0.80;99.90;;;;;;5062835;28;20523;-69
2021/03/05 06:28:27;;;;;;;2.20;1.80;;;0.80;99.90;;;;;;5064616;28;20515;-69
2021/03/05 06:30:53;;;;;;;2.00;1.50;;;0.80;99.90;;;;;;5062432;28;20438;-69
2021/03/05 06:33:25;;;;;;;1.10;1.00;;;0.60;99.90;;;;;;5061106;28;20558;-69
2021/03/05 06:35:52;;;;;;;1.60;1.50;;;0.60;99.90;;;;;;5065780;28;21041;-69
2021/03/05 06:38:38;;;;;;;4.20;2.07;;;0.50;99.90;;;;;;5061001;28;20561;-70
2021/03/05 06:41:15;;;;;;;1.60;1.50;;;0.70;99.90;;;;;;5060789;28;20460;-69
2021/03/05 06:43:46;;;;;;;1.43;1.27;;;0.80;99.90;;;;;;5067038;28;20546;-69
2021/03/05 06:46:30;;;;;;;1.47;1.07;;;1.00;99.90;;;;;;5061970;28;20434;-69
2021/03/05 06:48:58;;;;;;;1.67;1.30;;;1.10;99.90;;;;;;5060382;28;20457;-70
2021/03/05 06:51:25;;;;;;;3.57;1.53;;;1.10;99.90;;;;;;5059908;28;20454;-69
2021/03/05 06:54:03;;;;;;;1.93;1.43;;;1.30;99.90;;;;;;5063122;28;20516;-70
2021/03/05 06:56:30;;;;;;;3.40;3.17;;;1.40;99.90;;;;;;5061445;28;20461;-69
2021/03/05 06:59:02;;;;;;;10.63;1.93;;;1.30;99.90;;;;;;5063704;28;20895;-69
2021/03/05 07:01:28;;;;;;;0.90;0.80;;;1.40;99.90;;;;;;5058970;28;20869;-70
2021/03/05 07:04:09;;;;;;;1.70;1.60;;;1.50;99.90;;;;;;5063498;28;20438;-69
2021/03/05 07:06:36;;;;;;;1.23;1.10;;;1.40;99.90;;;;;;5059055;28;20905;-70
2021/03/05 07:09:04;;;;;;;4.20;2.13;;;1.30;99.90;;;;;;5063181;28;20573;-70
2021/03/05 07:11:38;;;;;;;2.73;1.93;;;1.20;99.90;;;;;;5059997;28;21161;-69
2021/03/05 07:14:07;;;;;;;1.27;1.10;;;1.20;99.90;;;;;;5062148;28;20504;-68
2021/03/05 07:16:39;;;;;;;3.53;1.30;;;1.10;99.90;;;;;;5061704;28;20537;-69
2021/03/05 07:19:06;;;;;;;1.60;1.50;;;1.30;99.90;;;;;;5063710;28;20548;-67
2021/03/05 07:21:37;;;;;;;2.00;1.83;;;1.30;99.90;;;;;;5059230;28;21026;-69
2021/03/05 07:24:06;;;;;;;1.70;1.40;;;1.40;99.90;;;;;;5061085;28;20599;-68
2021/03/05 07:26:35;;;;;;;1.20;1.10;;;1.60;99.90;;;;;;5060576;28;20513;-69
2021/03/05 07:29:03;;;;;;;5.03;1.30;;;1.40;99.90;;;;;;5063379;28;20962;-70
2021/03/05 07:31:33;;;;;;;5.90;1.40;;;1.40;99.90;;;;;;5062426;28;20487;-70
2021/03/05 07:34:02;;;;;;;2.70;1.80;;;1.70;99.90;;;;;;5063354;28;20538;-68
2021/03/05 07:36:34;;;;;;;1.77;1.43;;;1.80;99.90;;;;;;5058736;28;20452;-69
2021/03/05 07:39:05;;;;;;;4.70;2.10;;;1.70;99.90;;;;;;5062477;28;20535;-70
2021/03/05 07:41:33;;;;;;;1.03;0.90;;;2.00;99.90;;;;;;5058771;28;20486;-69
2021/03/05 07:44:00;;;;;;;1.43;1.33;;;2.30;99.90;;;;;;5058995;28;20437;-69
2021/03/05 07:46:28;;;;;;;1.50;1.40;;;2.50;99.90;;;;;;5058060;28;20524;-69
2021/03/05 07:48:56;;;;;;;2.63;1.50;;;2.60;99.90;;;;;;5060376;28;20477;-69
2021/03/05 07:51:23;;;;;;;3.80;1.83;;;2.50;99.90;;;;;;5062112;28;20480;-69
2021/03/05 07:53:51;;;;;;;2.47;1.60;;;2.50;99.90;;;;;;5062214;28;20465;-71
2021/03/05 07:56:43;;;;;;;1.20;1.10;;;2.50;99.90;;;;;;5056734;28;20795;-69
2021/03/05 07:59:10;;;;;;;6.80;1.80;;;2.40;99.90;;;;;;5061906;28;20527;-68
2021/03/05 08:01:56;;;;;;;2.47;1.60;;;2.70;99.90;;;;;;5060584;28;20454;-70
2021/03/05 08:04:24;;;;;;;1.93;1.70;;;3.00;99.90;;;;;;5057586;28;20494;-69
2021/03/05 08:07:08;;;;;;;1.00;0.83;;;2.90;99.90;;;;;;5062835;28;20798;-71
2021/03/05 08:09:36;;;;;;;2.97;1.90;;;3.00;99.90;;;;;;5059653;28;20857;-69
2021/03/05 08:12:35;;;;;;;1.50;1.20;;;3.10;99.90;;;;;;5063848;28;20454;-70
2021/03/05 08:15:23;;;;;;;1.70;1.40;;;3.40;99.90;;;;;;5059308;28;20809;-68
2021/03/05 08:17:52;;;;;;;1.53;1.43;;;3.70;99.90;;;;;;5059742;28;20525;-69
2021/03/05 08:20:52;;;;;;;2.23;2.03;;;4.20;99.90;;;;;;5062521;28;20508;-67
2021/03/05 08:23:19;;;;;;;4.97;1.80;;;4.40;99.90;;;;;;5058750;28;20471;-68
2021/03/05 08:25:55;;;;;;;1.90;1.80;;;4.80;99.90;;;;;;5059629;28;20463;-68
2021/03/05 08:28:37;;;;;;;3.20;1.00;;;5.00;99.90;;;;;;5059679;28;20533;-68
2021/03/05 08:31:24;;;;;;;3.33;1.70;;;4.70;99.90;;;;;;5058891;28;20809;-68
2021/03/05 08:33:50;;;;;;;1.70;1.60;;;4.90;99.90;;;;;;5055249;28;20530;-70
2021/03/05 08:36:46;;;;;;;6.83;2.00;;;5.20;99.90;;;;;;5058372;28;20512;-68
2021/03/05 08:39:27;;;;;;;4.17;2.27;;;5.80;99.90;;;;;;5059515;28;20687;-69
2021/03/05 08:42:29;;;;;;;4.10;2.40;;;6.40;99.90;;;;;;5060369;28;20509;-69
2021/03/05 08:45:18;;;;;;;1.40;1.03;;;6.90;99.90;;;;;;5057105;28;20491;-69
2021/03/05 08:47:47;;;;;;;1.53;1.40;;;6.80;99.90;;;;;;5057391;28;20803;-69
2021/03/05 08:50:16;;;;;;;3.57;2.17;;;7.00;99.90;;;;;;5057116;28;20477;-70
2021/03/05 08:52:45;;;;;;;1.33;1.20;;;7.80;99.90;;;;;;5061756;28;20562;-69
2021/03/05 08:55:13;;;;;;;1.70;1.60;;;8.20;99.90;;;;;;5061267;28;20886;-69
2021/03/05 08:57:41;;;;;;;4.80;1.97;;;9.00;99.90;;;;;;5064341;28;20575;-69
2021/03/05 09:00:12;;;;;;;4.40;1.30;;;9.10;99.90;;;;;;5062107;28;20507;-69
2021/03/05 09:02:39;;;;;;;2.37;1.70;;;9.40;99.90;;;;;;5060657;28;20955;-69
2021/03/05 09:05:06;;;;;;;5.23;1.97;;;9.60;99.90;;;;;;5057184;28;20961;-69
2021/03/05 09:07:51;;;;;;;4.63;1.80;;;10.30;99.90;;;;;;5060525;28;21784;-69
2021/03/05 09:10:20;;;;;;;1.90;1.57;;;11.20;99.90;;;;;;5060770;28;20470;-69
2021/03/05 09:12:58;;;;;;;3.17;1.63;;;10.50;99.90;;;;;;5057549;28;20482;-69
2021/03/05 09:15:28;;;;;;;3.73;1.60;;;10.60;99.90;;;;;;5060568;28;20828;-69
2021/03/05 09:17:57;;;;;;;3.00;1.87;;;10.30;99.90;;;;;;5056877;28;21143;-69
2021/03/05 09:20:23;;;;;;;2.23;1.53;;;11.10;99.90;;;;;;5057658;28;20510;-69
2021/03/05 09:22:51;;;;;;;1.40;1.30;;;11.60;99.60;;;;;;5059220;28;20447;-69
2021/03/05 09:25:17;;;;;;;3.73;1.57;;;12.20;97.60;;;;;;5060025;28;20476;-69
2021/03/05 09:27:44;;;;;;;3.07;2.40;;;13.00;96.90;;;;;;5058803;28;21056;-69
2021/03/05 09:30:16;;;;;;;7.37;1.77;;;13.70;93.60;;;;;;5060561;28;20627;-69
2021/03/05 09:32:50;;;;;;;3.17;1.93;;;13.10;93.50;;;;;;5063137;28;20476;-69
2021/03/05 09:35:22;;;;;;;4.03;1.97;;;13.00;92.30;;;;;;5059131;28;20463;-70
2021/03/05 09:37:49;;;;;;;7.60;2.23;;;13.70;89.80;;;;;;5061394;28;20954;-69
2021/03/05 09:40:16;;;;;;;3.27;2.13;;;13.70;90.20;;;;;;5059316;28;20446;-70
2021/03/05 09:42:44;;;;;;;2.40;1.40;;;14.30;86.90;;;;;;5060652;28;20447;-70
2021/03/05 09:45:12;;;;;;;3.50;1.90;;;15.10;83.20;;;;;;5059641;28;20932;-70
2021/03/05 09:47:49;;;;;;;3.43;1.63;;;15.70;82.30;;;;;;5059800;28;20489;-69
2021/03/05 09:50:21;;;;;;;2.30;1.40;;;15.80;74.10;;;;;;5063002;28;21013;-70
2021/03/05 09:52:48;;;;;;;4.90;1.57;;;15.00;71.80;;;;;;5058854;28;20569;-70
2021/03/05 09:55:26;;;;;;;5.10;1.80;;;14.90;70.10;;;;;;5060298;28;20591;-70
2021/03/05 09:57:53;;;;;;;3.37;1.30;;;14.20;70.80;;;;;;5060250;28;20881;-70
2021/03/05 10:00:32;;;;;;;3.97;1.20;;;14.30;74.20;;;;;;5059720;28;20562;-70
2021/03/05 10:03:04;;;;;;;2.17;1.30;;;12.90;73.80;;;;;;5057838;28;20593;-69
2021/03/05 10:05:31;;;;;;;4.27;1.70;;;12.60;74.00;;;;;;5060376;28;20593;-69
2021/03/05 10:07:57;;;;;;;6.83;1.53;;;12.40;72.70;;;;;;5061354;28;20951;-70
2021/03/05 10:10:25;;;;;;;1.53;1.33;;;13.20;74.90;;;;;;5059326;28;20543;-70
2021/03/05 10:12:52;;;;;;;5.53;1.93;;;13.70;73.40;;;;;;5061397;28;20523;-70
2021/03/05 10:15:18;;;;;;;2.07;1.30;;;13.50;71.70;;;;;;5063805;28;20549;-70
2021/03/05 10:17:45;;;;;;;1.43;1.00;;;12.80;69.90;;;;;;5064260;28;20537;-69
2021/03/05 10:20:13;;;;;;;3.37;1.47;;;12.20;75.00;;;;;;5062303;28;20513;-69
2021/03/05 10:22:40;;;;;;;1.40;1.30;;;12.50;74.10;;;;;;5063845;28;20542;-68
2021/03/05 10:25:08;;;;;;;3.00;1.30;;;12.60;70.00;;;;;;5061195;28;20457;-69
2021/03/05 10:27:42;;;;;;;1.30;1.00;;;12.70;68.30;;;;;;5060416;28;20545;-70
2021/03/05 10:30:10;;;;;;;1.90;1.40;;;11.60;69.30;;;;;;5062241;28;20524;-69
2021/03/05 10:32:43;;;;;;;2.97;1.70;;;12.20;71.00;;;;;;5065960;28;20482;-70
2021/03/05 10:35:11;;;;;;;2.70;1.00;;;12.10;70.20;;;;;;5064657;28;20545;-68
2021/03/05 10:37:38;;;;;;;3.57;1.50;;;12.90;68.60;;;;;;5063864;28;20541;-67
2021/03/05 10:40:06;;;;;;;2.40;1.50;;;12.70;69.50;;;;;;5062113;28;20558;-68
2021/03/05 10:42:33;;;;;;;2.13;1.27;;;12.20;68.20;;;;;;5062995;28;20452;-68
2021/03/05 10:45:00;;;;;;;2.80;1.20;;;11.90;71.10;;;;;;5062218;28;20558;-67
2021/03/05 10:47:27;;;;;;;1.50;0.90;;;12.20;69.30;;;;;;5065304;28;20558;-69
2021/03/05 10:49:54;;;;;;;3.23;1.37;;;11.90;70.00;;;;;;5059913;28;20514;-69
2021/03/05 10:52:22;;;;;;;1.10;0.90;;;12.90;70.40;;;;;;5062977;28;20568;-68
2021/03/05 10:54:49;;;;;;;2.23;1.40;;;14.20;65.70;;;;;;5062251;28;20915;-68
2021/03/05 10:57:17;;;;;;;4.90;1.30;;;14.40;66.70;;;;;;5062365;28;20490;-69
2021/03/05 10:59:44;;;;;;;2.00;1.10;;;15.60;64.70;;;;;;5064844;28;20485;-69
2021/03/05 11:02:12;;;;;;;1.77;1.20;;;15.30;61.70;;;;;;5063210;28;20704;-68
2021/03/05 11:04:39;;;;;;;4.50;2.70;;;15.50;59.70;;;;;;5066099;28;20457;-69
2021/03/05 11:07:06;;;;;;;1.40;1.10;;;15.80;57.80;;;;;;5065221;28;20942;-68
2021/03/05 11:09:33;;;;;;;2.40;1.00;;;15.40;58.40;;;;;;5064456;28;20601;-68
2021/03/05 11:12:00;;;;;;;2.60;0.90;;;14.40;59.70;;;;;;5067655;28;20581;-68
2021/03/05 11:14:28;;;;;;;5.70;1.80;;;15.20;59.90;;;;;;5063008;28;20990;-68
2021/03/05 11:16:55;;;;;;;6.40;2.33;;;16.20;58.10;;;;;;5061601;28;20455;-68
2021/03/05 11:19:23;;;;;;;2.17;1.20;;;16.50;57.20;;;;;;5061957;28;20867;-68
2021/03/05 11:21:50;;;;;;;2.33;1.40;;;16.30;57.30;;;;;;5063947;28;20481;-69
2021/03/05 11:24:17;;;;;;;2.50;1.47;;;16.60;54.50;;;;;;5061561;28;20516;-68
2021/03/05 11:26:43;;;;;;;4.53;1.27;;;15.50;54.30;;;;;;5058777;28;20553;-68
2021/03/05 11:29:10;;;;;;;2.50;1.57;;;15.10;55.50;;;;;;5064374;28;20532;-68
2021/03/05 11:31:37;;;;;;;4.13;1.40;;;15.60;55.50;;;;;;5064704;28;20467;-68
2021/03/05 11:34:03;;;;;;;2.80;1.40;;;15.60;57.60;;;;;;5060363;28;20498;-68
2021/03/05 11:36:31;;;;;;;1.97;1.70;;;15.90;55.90;;;;;;5061560;28;20501;-69
2021/03/05 11:38:57;;;;;;;2.03;1.20;;;16.60;56.20;;;;;;5060361;28;20605;-69
2021/03/05 11:41:24;;;;;;;4.60;1.07;;;16.70;55.70;;;;;;5061589;28;20462;-69
2021/03/05 11:43:52;;;;;;;4.40;1.03;;;17.10;54.30;;;;;;5056963;28;20545;-69
2021/03/05 11:46:21;;;;;;;2.53;1.27;;;16.80;52.50;;;;;;5063397;28;20486;-69
2021/03/05 11:48:48;;;;;;;1.77;1.63;;;16.80;50.30;;;;;;5064028;28;20474;-68
2021/03/05 11:51:16;;;;;;;2.33;1.80;;;15.00;51.90;;;;;;5065408;28;20486;-69
2021/03/05 11:53:43;;;;;;;2.07;1.87;;;15.00;50.70;;;;;;5059072;28;20574;-67
2021/03/05 11:56:10;;;;;;;1.53;1.10;;;15.20;50.60;;;;;;5062535;28;20972;-68
2021/03/05 11:58:37;;;;;;;1.33;1.00;;;14.60;50.40;;;;;;5057908;28;20910;-68
2021/03/05 12:01:04;;;;;;;2.60;1.10;;;13.40;51.00;;;;;;5061687;28;20652;-68
2021/03/05 12:03:30;;;;;;;1.97;1.10;;;12.90;52.60;;;;;;5060224;28;20980;-67
2021/03/05 12:05:57;;;;;;;1.80;1.13;;;12.20;54.10;;;;;;5058929;28;20517;-68
2021/03/05 12:08:24;;;;;;;2.07;1.00;;;13.00;54.20;;;;;;5059566;28;20506;-68
2021/03/05 12:10:52;;;;;;;1.93;1.67;;;14.20;53.00;;;;;;5059662;28;20454;-68
2021/03/05 12:13:19;;;;;;;1.20;0.90;;;15.70;50.90;;;;;;5061210;28;20478;-68
2021/03/05 12:15:46;;;;;;;4.40;0.90;;;16.60;47.60;;;;;;5060574;28;20475;-69
2021/03/05 12:18:13;;;;;;;1.83;1.60;;;16.20;46.10;;;;;;5060292;28;20502;-68
2021/03/05 12:20:40;;;;;;;11.07;2.90;;;15.20;46.70;;;;;;5063042;28;20493;-68
2021/03/05 12:23:07;;;;;;;9.80;1.63;;;16.00;48.20;;;;;;5061383;28;20974;-69
2021/03/05 12:25:34;;;;;;;2.37;1.53;;;17.10;46.70;;;;;;5060708;28;20497;-69
2021/03/05 12:28:01;;;;;;;2.00;1.20;;;17.70;47.30;;;;;;5061107;28;21012;-69
2021/03/05 12:30:28;;;;;;;1.97;1.33;;;18.20;47.00;;;;;;5061916;28;20598;-68
2021/03/05 12:32:55;;;;;;;3.73;1.50;;;17.60;45.40;;;;;;5063655;28;20577;-69
2021/03/05 12:35:22;;;;;;;1.00;0.90;;;16.90;46.10;;;;;;5061171;28;20869;-69
2021/03/05 12:37:49;;;;;;;2.73;1.30;;;16.80;42.70;;;;;;5058114;28;20535;-71
2021/03/05 12:40:16;;;;;;;1.87;1.13;;;15.80;44.80;;;;;;5062610;28;20520;-71
2021/03/05 12:42:44;;;;;;;2.80;1.10;;;16.30;45.20;;;;;;5062057;28;20556;-70
2021/03/05 12:45:14;;;;;;;1.57;1.20;;;16.90;45.20;;;;;;5058065;28;20518;-70
2021/03/05 12:47:41;;;;;;;1.43;1.33;;;18.10;42.40;;;;;;5062271;28;20458;-69
2021/03/05 12:50:08;;;;;;;1.20;1.00;;;18.40;43.10;;;;;;5059461;28;20479;-68
2021/03/05 12:52:35;;;;;;;3.73;1.40;;;18.10;42.70;;;;;;5060777;28;20951;-68
2021/03/05 12:55:03;;;;;;;3.03;1.33;;;17.80;41.70;;;;;;5061417;28;20493;-68
2021/03/05 12:57:29;;;;;;;1.77;0.80;;;16.00;43.20;;;;;;5060774;28;20454;-68
2021/03/05 12:59:56;;;;;;;3.60;1.50;;;16.50;42.20;;;;;;5059379;28;20556;-68
2021/03/05 13:02:24;;;;;;;2.70;1.23;;;15.90;41.00;;;;;;5057862;28;20561;-68
2021/03/05 13:04:50;;;;;;;3.47;1.63;;;15.70;42.80;;;;;;5060251;28;20447;-68